CT1ETE Weather Reports


time (UTC)temp
C
wind
direction
speed
KPH
gust
KPH
rain 1hr
cm
rain 24hr
cm
rain mn
cm
humidity
%
barometer
mb
20180820165155 35 294 4.8 11.3 0.00 0.00 0.00 24 1016.2
20180820165149 35 313 4.8 14.5 0.00 0.00 0.00 23 1016.2
20180820163648 35 294 4.8 11.3 0.00 0.00 0.00 24 1016.2
20180820162158 35 54 9.7 17.7 0.00 0.00 0.00 24 1016.4
20180820162149 35 22 4.8 14.5 0.00 0.00 0.00 23 1016.4
20180820160648 35 54 9.7 17.7 0.00 0.00 0.00 24 1016.4
20180820155158 35 51 6.4 14.5 0.00 0.00 0.00 24 1016.7
20180820155148 35 5 8.0 14.5 0.00 0.00 0.00 23 1016.6
20180820153655 34 99 11.3 20.9 0.00 0.00 0.00 24 1016.9
20180820153648 35 51 6.4 14.5 0.00 0.00 0.00 24 1016.7
20180820152149 34 99 11.3 20.9 0.00 0.00 0.00 24 1016.9
20180820150649 35 26 6.4 14.5 0.00 0.00 0.00 24 1017.0
20180820145158 34 34 11.3 24.1 0.00 0.00 0.00 25 1017.3
20180820145149 34 5 8.0 24.1 0.00 0.00 0.00 25 1017.2
20180820143806 34 333 4.8 12.9 0.00 0.00 0.00 26 1017.6
20180820143648 34 34 11.3 24.1 0.00 0.00 0.00 25 1017.3
20180820142148 34 333 4.8 12.9 0.00 0.00 0.00 26 1017.6
20180820140658 33 88 8.0 17.7 0.00 0.00 0.00 27 1017.7
20180820140648 34 124 8.0 19.3 0.00 0.00 0.00 28 1017.6
20180820135148 33 88 8.0 17.7 0.00 0.00 0.00 27 1017.7
20180820133656 32 95 11.3 27.4 0.00 0.00 0.00 28 1017.9
20180820133647 33 159 9.7 24.1 0.00 0.00 0.00 27 1017.9
20180820132146 32 95 11.3 27.4 0.00 0.00 0.00 28 1017.9
20180820130655 32 124 11.3 22.5 0.00 0.00 0.00 30 1018.1
20180820130645 32 57 12.9 30.6 0.00 0.00 0.00 29 1018.0
20180820125144 32 124 11.3 22.5 0.00 0.00 0.00 30 1018.1
20180820123644 32 101 12.9 25.7 0.00 0.00 0.00 30 1018.2
20180820122145 31 84 14.5 32.2 0.00 0.00 0.00 31 1018.3
20180820120644 31 71 14.5 30.6 0.00 0.00 0.00 31 1018.5
20180820115155 30 91 25.7 41.8 0.00 0.00 0.00 32 1018.6
20180820115144 30 97 17.7 33.8 0.00 0.00 0.00 32 1018.5
20180820113645 30 80 22.5 35.4 0.00 0.00 0.00 32 1018.6
20180820112302 29 71 27.4 43.5 0.00 0.00 0.00 32 1018.7
20180820112144 30 91 25.7 41.8 0.00 0.00 0.00 32 1018.6
20180820110649 28 84 29.0 45.1 0.00 0.00 0.00 33 1018.7
20180820110644 29 71 27.4 43.5 0.00 0.00 0.00 32 1018.7
20180820105144 28 84 29.0 45.1 0.00 0.00 0.00 33 1018.7
20180820103644 28 355 27.4 45.1 0.00 0.00 0.00 33 1018.7
20180820102144 28 62 33.8 53.1 0.00 0.00 0.00 32 1018.8
20180820100653 27 66 25.7 43.5 0.00 0.00 0.00 33 1019.0
20180820100643 27 71 30.6 48.3 0.00 0.00 0.00 33 1018.8
20180820095144 27 90 25.7 43.5 0.00 0.00 0.00 33 1018.9
20180820093644 27 66 25.7 43.5 0.00 0.00 0.00 33 1019.0
20180820092151 26 78 19.3 35.4 0.00 0.00 0.00 31 1019.2
20180820092142 26 69 27.4 46.7 0.00 0.00 0.00 31 1019.1
20180820090642 26 78 19.3 35.4 0.00 0.00 0.00 31 1019.2
20180820085141 26 87 24.1 41.8 0.00 0.00 0.00 30 1019.3
20180820083641 26 73 20.9 46.7 0.00 0.00 0.00 29 1019.2
20180820082156 26 51 8.0 22.5 0.00 0.00 0.00 29 1019.3
20180820082151 26 55 14.5 29.0 0.00 0.00 0.00 30 1019.3
20180820082142 26 92 19.3 37.0 0.00 0.00 0.00 29 1019.3
20180820080642 26 55 14.5 29.0 0.00 0.00 0.00 30 1019.3
20180820075142 26 51 8.0 22.5 0.00 0.00 0.00 29 1019.3
20180820073642 26 27 3.2 8.0 0.00 0.00 0.00 32 1019.2
20180820072142 25 32 1.6 11.3 0.00 0.00 0.00 34 1019.1
20180820070650 25 75 17.7 30.6 0.00 0.00 0.00 31 1018.8
20180820070642 25 218 1.6 9.7 0.00 0.00 0.00 33 1019.1
20180820065141 25 178 6.4 25.7 0.00 0.00 0.00 31 1019.0
20180820063800 25 63 20.9 33.8 0.00 0.00 0.00 29 1018.7
20180820063642 25 75 17.7 30.6 0.00 0.00 0.00 31 1018.8
20180820062309 25 91 17.7 27.4 0.00 0.00 0.00 29 1018.6
20180820062142 25 63 20.9 33.8 0.00 0.00 0.00 29 1018.7
20180820060647 25 76 20.9 35.4 0.00 0.00 0.00 29 1018.5
20180820060641 25 91 17.7 27.4 0.00 0.00 0.00 29 1018.6
20180820055142 25 76 20.9 35.4 0.00 0.00 0.00 29 1018.5
20180820053703 25 78 20.9 35.4 0.00 0.00 0.00 31 1018.3
20180820053650 25 55 20.9 38.6 0.00 0.00 0.00 31 1018.2
20180820053642 25 96 17.7 38.6 0.00 0.00 0.00 30 1018.3
20180820052147 25 62 20.9 33.8 0.00 0.00 0.00 31 1018.2
20180820052141 25 55 20.9 38.6 0.00 0.00 0.00 31 1018.2
20180820050642 25 62 20.9 33.8 0.00 0.00 0.00 31 1018.2
20180820045141 25 78 20.9 35.4 0.00 0.00 0.00 31 1018.3
20180820043641 25 100 22.5 29.0 0.00 0.00 0.00 30 1018.2
20180820042142 25 45 17.7 27.4 0.00 0.00 0.00 31 1018.3
20180820040642 25 100 22.5 40.2 0.00 0.00 0.00 31 1018.3
20180820035141 25 98 30.6 49.9 0.00 0.00 0.00 31 1018.3
20180820033650 25 76 30.6 46.7 0.00 0.00 0.00 34 1018.5
20180820033642 25 78 33.8 45.1 0.00 0.00 0.00 33 1018.5
20180820032141 25 76 30.6 46.7 0.00 0.00 0.00 34 1018.5
20180820030650 26 70 33.8 45.1 0.00 0.00 0.00 34 1018.5
20180820030641 25 91 33.8 48.3 0.00 0.00 0.00 34 1018.5
20180820025258 26 71 32.2 43.5 0.00 0.00 0.00 34 1018.6
20180820025139 26 70 33.8 45.1 0.00 0.00 0.00 34 1018.5
20180820023640 26 71 32.2 43.5 0.00 0.00 0.00 34 1018.6
20180820022140 26 61 25.7 37.0 0.00 0.00 0.00 33 1018.8
20180820020639 26 72 25.7 37.0 0.00 0.00 0.00 32 1018.9
20180820015152 26 77 25.7 41.8 0.00 0.00 0.00 29 1018.9
20180820015148 26 69 25.7 33.8 0.00 0.00 0.00 30 1018.8
20180820015139 26 78 27.4 40.2 0.00 0.00 0.00 31 1018.8
20180820013639 26 69 25.7 33.8 0.00 0.00 0.00 30 1018.8
20180820012143 27 70 29.0 38.6 0.00 0.00 0.00 27 1018.7
20180820012138 26 77 25.7 41.8 0.00 0.00 0.00 29 1018.9
20180820010637 27 70 29.0 38.6 0.00 0.00 0.00 27 1018.7
20180820005146 27 77 22.5 32.2 0.00 0.00 0.00 26 1018.9
20180820005137 27 77 25.7 35.4 0.00 0.00 0.00 26 1018.9
20180820003637 27 77 22.5 32.2 0.00 0.00 0.00 26 1018.9
20180820002137 27 70 20.9 27.4 0.00 0.00 0.00 25 1018.9
20180820000638 27 86 19.3 27.4 0.00 0.00 0.00 25 1019.0
20180819235137 27 88 16.1 22.5 0.00 0.00 0.00 24 1019.0
20180819233637 27 71 14.5 20.9 0.00 0.00 0.00 25 1019.0
20180819232256 27 95 11.3 20.9 0.00 0.00 0.00 23 1019.1
20180819232146 27 69 12.9 20.9 0.00 0.00 0.00 24 1019.1
20180819232137 27 81 12.9 17.7 0.00 0.00 0.00 24 1019.0
20180819230637 27 69 12.9 20.9 0.00 0.00 0.00 24 1019.1
20180819225138 27 95 11.3 20.9 0.00 0.00 0.00 23 1019.1
20180819223638 28 65 16.1 20.9 0.00 0.00 0.00 22 1019.0
20180819222137 28 76 14.5 19.3 0.00 0.00 0.00 21 1019.0
20180819220635 28 69 14.5 20.9 0.00 0.00 0.00 21 1019.1
20180819215135 28 62 16.1 20.9 0.00 0.00 0.00 20 1019.0
20180819213650 27 103 4.8 12.9 0.00 0.00 0.00 22 1018.9
20180819213635 28 92 12.9 19.3 0.00 0.00 0.00 21 1019.0
20180819212148 28 67 4.8 9.7 0.00 0.00 0.00 22 1018.9
20180819212135 27 103 4.8 12.9 0.00 0.00 0.00 22 1018.9
20180819210635 28 67 4.8 9.7 0.00 0.00 0.00 22 1018.9
20180819205133 28 61 8.0 12.9 0.00 0.00 0.00 21 1018.9
20180819203633 28 98 8.0 12.9 0.00 0.00 0.00 21 1018.8
20180819202148 30 82 8.0 12.9 0.00 0.00 0.00 19 1018.3
20180819202133 28 94 6.4 12.9 0.00 0.00 0.00 22 1018.7
20180819200754 30 89 9.7 14.5 0.00 0.00 0.00 18 1018.2
20180819200631 30 87 9.7 12.9 0.00 0.00 0.00 19 1018.6
20180819195131 30 82 8.0 12.9 0.00 0.00 0.00 19 1018.3
20180819193631 30 89 9.7 14.5 0.00 0.00 0.00 18 1018.2
20180819192147 31 83 9.7 14.5 0.00 0.00 0.00 20 1018.1
20180819192131 30 102 11.3 17.7 0.00 0.00 0.00 19 1018.1
20180819190628 31 83 9.7 14.5 0.00 0.00 0.00 20 1018.1
20180819185129 31 49 8.0 12.9 0.00 0.00 0.00 21 1018.1
20180819183629 32 42 4.8 14.5 0.00 0.00 0.00 20 1018.1
20180819182142 32 57 6.4 16.1 0.00 0.00 0.00 20 1018.0
20180819182126 32 51 8.0 19.3 0.00 0.00 0.00 19 1018.0
20180819180627 32 57 6.4 16.1 0.00 0.00 0.00 20 1018.0
20180819175134 32 94 8.0 19.3 0.00 0.00 0.00 21 1018.0
20180819173635 32 71 12.9 22.5 0.00 0.00 0.00 20 1018.1
20180819172133 32 28 9.7 20.9 0.00 0.00 0.00 21 1018.1
20180819170634 32 21 12.9 22.5 0.00 0.00 0.00 22 1018.1